createdAt,value
2016-10-23T00:00:08.124Z,4.69
2016-10-23T00:01:07.598Z,4.62
2016-10-23T00:02:07.241Z,4.57
2016-10-23T00:03:07.837Z,4.69
2016-10-23T00:04:08.400Z,4.70
2016-10-23T00:05:08.309Z,4.65
2016-10-23T00:06:08.133Z,4.64
2016-10-23T00:07:07.569Z,4.64
2016-10-23T00:08:07.173Z,4.64
2016-10-23T00:09:07.784Z,4.63
2016-10-23T00:10:07.348Z,4.47
2016-10-23T00:11:07.999Z,4.50
2016-10-23T00:12:08.004Z,4.43
2016-10-23T00:13:07.650Z,4.46
2016-10-23T00:14:07.259Z,4.39
2016-10-23T00:15:07.926Z,4.40
2016-10-23T00:16:07.921Z,4.37
2016-10-23T00:17:07.842Z,4.38
2016-10-23T00:18:07.500Z,4.41
2016-10-23T00:19:07.349Z,4.46
2016-10-23T00:20:08.410Z,4.58
2016-10-23T00:21:08.003Z,4.64
2016-10-23T00:22:07.972Z,4.62
2016-10-23T00:23:07.609Z,4.59
2016-10-23T00:24:07.529Z,4.61
2016-10-23T00:25:07.323Z,4.57
2016-10-23T00:26:08.249Z,4.59
2016-10-23T00:27:07.902Z,4.55
2016-10-23T00:28:07.771Z,4.58
2016-10-23T00:29:07.381Z,4.57
2016-10-23T00:30:07.873Z,4.61
2016-10-23T00:31:07.875Z,4.72
2016-10-23T00:32:07.413Z,4.69
2016-10-23T00:33:08.084Z,4.59
2016-10-23T00:34:07.854Z,4.59
2016-10-23T00:35:07.406Z,4.47
2016-10-23T00:36:08.132Z,4.48
2016-10-23T00:37:07.466Z,4.55
2016-10-23T00:38:08.111Z,4.47
2016-10-23T00:39:07.684Z,4.41
2016-10-23T00:40:07.440Z,4.35
2016-10-23T00:41:08.120Z,4.40
2016-10-23T00:42:07.758Z,4.50
2016-10-23T00:43:07.322Z,4.57
2016-10-23T00:44:07.965Z,4.64
2016-10-23T00:45:07.579Z,4.56
2016-10-23T00:46:07.820Z,4.49
2016-10-23T00:47:07.392Z,4.52
2016-10-23T00:48:07.948Z,4.54
2016-10-23T00:49:07.453Z,4.48
2016-10-23T00:50:08.280Z,4.44
2016-10-23T00:51:08.015Z,4.48
2016-10-23T00:52:07.638Z,4.41
2016-10-23T00:53:07.130Z,4.37
2016-10-23T00:54:07.662Z,4.32
2016-10-23T00:55:07.190Z,4.30
2016-10-23T00:56:07.842Z,4.35
2016-10-23T00:57:07.342Z,4.40
2016-10-23T00:58:07.909Z,4.39
2016-10-23T00:59:07.531Z,4.44
2016-10-23T01:00:08.101Z,4.48
2016-10-23T01:01:08.062Z,4.57
2016-10-23T01:02:07.532Z,4.62
2016-10-23T01:03:07.976Z,4.59
2016-10-23T01:04:07.402Z,4.52
2016-10-23T01:05:08.027Z,4.52
2016-10-23T01:06:07.594Z,4.58
2016-10-23T01:07:07.156Z,4.53
2016-10-23T01:08:07.233Z,4.38
2016-10-23T01:09:08.024Z,4.36
2016-10-23T01:10:07.515Z,4.31
2016-10-23T01:11:07.921Z,4.17
2016-10-23T01:12:07.972Z,4.16
2016-10-23T01:13:08.539Z,4.11
2016-10-23T01:14:08.238Z,4.08
2016-10-23T01:15:08.628Z,4.09
2016-10-23T01:16:07.536Z,4.10
2016-10-23T01:17:07.792Z,4.11
2016-10-23T01:18:07.396Z,4.08
2016-10-23T01:19:07.842Z,4.08
2016-10-23T01:20:07.511Z,4.07
2016-10-23T01:21:08.121Z,4.10
2016-10-23T01:22:07.837Z,4.16
2016-10-23T01:23:07.678Z,4.19
2016-10-23T01:24:07.408Z,4.22
2016-10-23T01:25:08.015Z,4.24
2016-10-23T01:26:07.607Z,4.16
2016-10-23T01:27:07.169Z,4.06
2016-10-23T01:28:07.679Z,4.01
2016-10-23T01:29:07.934Z,4.06
2016-10-23T01:30:07.285Z,4.01
2016-10-23T01:31:07.320Z,4.02
2016-10-23T01:32:07.852Z,4.03
2016-10-23T01:33:07.719Z,4.12
2016-10-23T01:34:07.349Z,4.15
2016-10-23T01:35:07.893Z,4.16
2016-10-23T01:36:07.131Z,4.13
2016-10-23T01:37:07.450Z,4.08
2016-10-23T01:38:07.251Z,4.04
2016-10-23T01:39:07.973Z,3.98
2016-10-23T01:40:07.555Z,3.97
2016-10-23T01:41:07.162Z,3.97
2016-10-23T01:42:07.678Z,3.94
2016-10-23T01:43:07.536Z,3.87
2016-10-23T01:44:08.090Z,3.84
2016-10-23T01:45:07.974Z,3.87
2016-10-23T01:46:08.169Z,3.81
2016-10-23T01:47:07.753Z,3.83
2016-10-23T01:48:07.193Z,3.84
2016-10-23T01:49:07.264Z,3.91
2016-10-23T01:50:08.007Z,3.81
2016-10-23T01:51:08.051Z,3.79
2016-10-23T01:52:07.556Z,3.71
2016-10-23T01:53:07.268Z,3.60
2016-10-23T01:54:07.981Z,3.75
2016-10-23T01:55:07.600Z,3.75
2016-10-23T01:56:07.149Z,3.75
2016-10-23T01:57:07.743Z,3.76
2016-10-23T01:58:07.250Z,3.73
2016-10-23T01:59:07.732Z,3.68
2016-10-23T02:00:07.276Z,3.76
2016-10-23T02:01:08.435Z,3.68
2016-10-23T02:02:08.084Z,3.69
2016-10-23T02:03:08.149Z,3.73
2016-10-23T02:04:07.764Z,3.76
2016-10-23T02:05:07.253Z,3.76
2016-10-23T02:06:07.790Z,3.70
2016-10-23T02:07:07.311Z,3.68
2016-10-23T02:08:07.815Z,3.70
2016-10-23T02:09:07.407Z,3.71
2016-10-23T02:10:07.490Z,3.76
2016-10-23T02:11:08.116Z,3.69
2016-10-23T02:12:07.635Z,3.68
2016-10-23T02:13:07.396Z,3.59
2016-10-23T02:14:07.331Z,3.56
2016-10-23T02:15:08.063Z,3.57
2016-10-23T02:16:07.516Z,3.64
2016-10-23T02:17:07.768Z,3.58
2016-10-23T02:18:07.385Z,3.62
2016-10-23T02:19:07.941Z,3.54
2016-10-23T02:20:07.613Z,3.55
2016-10-23T02:21:07.080Z,3.48
2016-10-23T02:22:07.871Z,3.49
2016-10-23T02:23:07.432Z,3.63
2016-10-23T02:24:08.000Z,3.66
2016-10-23T02:25:07.601Z,3.61
2016-10-23T02:26:07.090Z,3.52
2016-10-23T02:27:07.705Z,3.52
2016-10-23T02:28:07.384Z,3.54
2016-10-23T02:29:08.028Z,3.54
2016-10-23T02:30:07.309Z,3.48
2016-10-23T02:31:07.893Z,3.47
2016-10-23T02:32:07.434Z,3.48
2016-10-23T02:33:08.011Z,3.49
2016-10-23T02:34:07.432Z,3.44
2016-10-23T02:35:07.531Z,3.41
2016-10-23T02:36:08.072Z,3.53
2016-10-23T02:37:07.719Z,3.58
2016-10-23T02:38:07.340Z,3.54
2016-10-23T02:39:07.826Z,3.34
2016-10-23T02:40:07.471Z,3.36
2016-10-23T02:41:08.011Z,3.28
2016-10-23T02:42:07.492Z,3.33
2016-10-23T02:43:08.189Z,3.37
2016-10-23T02:44:07.688Z,3.37
2016-10-23T02:45:07.597Z,3.45
2016-10-23T02:46:07.842Z,3.51
2016-10-23T02:47:07.701Z,3.52
2016-10-23T02:48:07.280Z,3.53
2016-10-23T02:49:08.093Z,3.51
2016-10-23T02:50:07.680Z,3.52
2016-10-23T02:51:07.254Z,3.51
2016-10-23T02:52:07.833Z,3.42
2016-10-23T02:53:07.300Z,3.42
2016-10-23T02:54:07.900Z,3.49
2016-10-23T02:55:07.751Z,3.43
2016-10-23T02:56:07.558Z,3.48
2016-10-23T02:57:07.189Z,3.52
2016-10-23T02:58:07.752Z,3.52
2016-10-23T02:59:07.292Z,3.44
2016-10-23T03:00:08.003Z,3.41
2016-10-23T03:01:08.334Z,3.35
2016-10-23T03:02:08.079Z,3.36
2016-10-23T03:03:07.319Z,3.39
2016-10-23T03:04:07.977Z,3.41
2016-10-23T03:05:07.814Z,3.59
2016-10-23T03:06:07.437Z,3.64
2016-10-23T03:07:07.977Z,3.64
2016-10-23T03:08:07.723Z,3.65
2016-10-23T03:09:07.410Z,3.60
2016-10-23T03:10:08.070Z,3.54
2016-10-23T03:11:08.979Z,3.51
2016-10-23T03:12:07.266Z,3.51
2016-10-23T03:13:07.901Z,3.44
2016-10-23T03:14:07.547Z,3.42
2016-10-23T03:15:07.236Z,3.42
2016-10-23T03:16:08.558Z,3.50
2016-10-23T03:17:09.087Z,3.43
2016-10-23T03:18:07.777Z,3.48
2016-10-23T03:19:07.458Z,3.55
2016-10-23T03:20:08.091Z,3.53
2016-10-23T03:21:07.563Z,3.54
2016-10-23T03:22:08.129Z,3.53
2016-10-23T03:23:07.748Z,3.48
2016-10-23T03:24:07.337Z,3.42
2016-10-23T03:25:07.929Z,3.45
2016-10-23T03:26:07.632Z,3.47
2016-10-23T03:27:07.248Z,3.44
2016-10-23T03:28:07.752Z,3.41
2016-10-23T03:29:07.266Z,3.47
2016-10-23T03:30:07.985Z,3.49
2016-10-23T03:31:07.730Z,3.51
2016-10-23T03:32:07.339Z,3.41
2016-10-23T03:33:08.686Z,3.44
2016-10-23T03:34:07.208Z,3.39
2016-10-23T03:35:07.800Z,3.52
2016-10-23T03:36:07.444Z,3.58
2016-10-23T03:37:08.163Z,3.58
2016-10-23T03:38:07.787Z,3.62
2016-10-23T03:39:07.491Z,3.56
2016-10-23T03:40:07.543Z,3.48
2016-10-23T03:41:07.688Z,3.50
2016-10-23T03:42:07.402Z,3.55
2016-10-23T03:43:08.062Z,3.49
2016-10-23T03:44:07.729Z,3.53
2016-10-23T03:45:07.333Z,3.57
2016-10-23T03:46:07.951Z,3.51
2016-10-23T03:47:07.510Z,3.52
2016-10-23T03:48:08.307Z,3.55
2016-10-23T03:49:07.908Z,3.59
2016-10-23T03:50:07.553Z,3.62
2016-10-23T03:51:07.160Z,3.66
2016-10-23T03:52:07.782Z,3.58
2016-10-23T03:53:07.352Z,3.69
2016-10-23T03:54:07.286Z,3.71
2016-10-23T03:55:07.996Z,3.78
2016-10-23T03:56:08.165Z,3.80
2016-10-23T03:57:07.815Z,3.75
2016-10-23T03:58:07.431Z,3.75
2016-10-23T03:59:07.786Z,3.66
2016-10-23T04:00:07.428Z,3.68
2016-10-23T04:01:08.004Z,3.73
2016-10-23T04:02:07.528Z,3.73
2016-10-23T04:03:07.968Z,3.75
2016-10-23T04:04:07.982Z,3.82
2016-10-23T04:05:07.591Z,3.86
2016-10-23T04:06:07.256Z,3.97
2016-10-23T04:07:08.784Z,4.03
2016-10-23T04:08:08.710Z,4.05
2016-10-23T04:09:07.538Z,3.86
2016-10-23T04:10:07.907Z,3.94
2016-10-23T04:11:08.087Z,3.87
2016-10-23T04:12:07.646Z,3.83
2016-10-23T04:13:07.250Z,3.82
2016-10-23T04:14:08.001Z,3.86
2016-10-23T04:15:07.928Z,3.89
2016-10-23T04:16:07.591Z,3.85
2016-10-23T04:17:07.362Z,3.76
2016-10-23T04:18:07.939Z,3.73
2016-10-23T04:19:07.553Z,3.81
2016-10-23T04:20:08.222Z,3.85
2016-10-23T04:21:07.921Z,3.90
2016-10-23T04:22:07.940Z,3.82
2016-10-23T04:23:07.484Z,3.85
2016-10-23T04:24:08.296Z,3.84
2016-10-23T04:25:10.424Z,3.83
2016-10-23T04:26:08.032Z,3.82
2016-10-23T04:27:07.716Z,3.85
2016-10-23T04:28:07.464Z,3.88
2016-10-23T04:29:08.011Z,3.87
2016-10-23T04:30:07.756Z,3.80
2016-10-23T04:31:08.321Z,3.80
2016-10-23T04:32:07.991Z,3.83
2016-10-23T04:33:07.521Z,3.87
2016-10-23T04:34:07.136Z,3.91
2016-10-23T04:35:07.721Z,3.92
2016-10-23T04:36:07.303Z,3.90
2016-10-23T04:37:07.309Z,3.96
2016-10-23T04:38:07.875Z,4.03
2016-10-23T04:39:07.608Z,3.98
2016-10-23T04:40:07.108Z,3.99
2016-10-23T04:41:07.623Z,4.04
2016-10-23T04:42:07.216Z,4.14
2016-10-23T04:43:07.747Z,4.21
2016-10-23T04:44:07.356Z,4.15
2016-10-23T04:45:08.068Z,4.17
2016-10-23T04:46:08.637Z,4.05
2016-10-23T04:47:08.720Z,4.11
2016-10-23T04:48:07.219Z,4.03
2016-10-23T04:49:07.424Z,4.04
2016-10-23T04:50:08.056Z,4.00
2016-10-23T04:51:07.644Z,4.06
2016-10-23T04:52:07.432Z,4.19
2016-10-23T04:53:08.020Z,4.12
2016-10-23T04:54:07.737Z,4.19
2016-10-23T04:55:07.389Z,4.30
2016-10-23T04:56:07.894Z,4.15
2016-10-23T04:57:07.505Z,4.25
2016-10-23T04:58:08.034Z,4.24
2016-10-23T04:59:07.594Z,4.27
2016-10-23T05:00:07.108Z,4.26
2016-10-23T05:01:08.637Z,4.28
2016-10-23T05:02:07.449Z,4.25
2016-10-23T05:03:08.043Z,4.31
2016-10-23T05:04:07.640Z,4.35
2016-10-23T05:05:07.316Z,4.44
2016-10-23T05:06:07.958Z,4.41
2016-10-23T05:07:07.671Z,4.42
2016-10-23T05:08:07.266Z,4.42
2016-10-23T05:09:07.844Z,4.42
2016-10-23T05:10:07.434Z,4.46
2016-10-23T05:11:08.018Z,4.46
2016-10-23T05:12:07.605Z,4.41
2016-10-23T05:13:07.025Z,4.46
2016-10-23T05:14:07.801Z,4.45
2016-10-23T05:15:07.611Z,4.45
2016-10-23T05:16:08.070Z,4.48
2016-10-23T05:17:07.867Z,4.44
2016-10-23T05:18:07.411Z,4.44
2016-10-23T05:19:07.949Z,4.40
2016-10-23T05:20:07.551Z,4.45
2016-10-23T05:21:08.212Z,4.41
2016-10-23T05:22:07.891Z,4.43
2016-10-23T05:23:07.522Z,4.42
2016-10-23T05:24:08.065Z,4.45
2016-10-23T05:25:07.658Z,4.43
2016-10-23T05:26:07.286Z,4.44
2016-10-23T05:27:08.173Z,4.39
2016-10-23T05:28:08.737Z,4.30
2016-10-23T05:29:07.425Z,4.34
2016-10-23T05:30:08.226Z,4.33
2016-10-23T05:31:08.785Z,4.38
2016-10-23T05:32:07.439Z,4.26
2016-10-23T05:33:07.996Z,4.30
2016-10-23T05:34:07.947Z,4.35
2016-10-23T05:35:07.512Z,4.40
2016-10-23T05:36:08.097Z,4.45
2016-10-23T05:37:07.641Z,4.45
2016-10-23T05:38:07.216Z,4.48
2016-10-23T05:39:07.872Z,4.52
2016-10-23T05:40:07.486Z,4.59
2016-10-23T05:41:08.194Z,4.57
2016-10-23T05:42:07.927Z,4.47
2016-10-23T05:43:07.479Z,4.51
2016-10-23T05:44:08.136Z,4.50
2016-10-23T05:45:07.457Z,4.50
2016-10-23T05:46:08.336Z,4.42
2016-10-23T05:47:07.518Z,4.52
2016-10-23T05:48:08.212Z,4.61
2016-10-23T05:49:07.987Z,4.66
2016-10-23T05:50:07.862Z,4.68
2016-10-23T05:51:07.456Z,4.67
2016-10-23T05:52:08.524Z,4.66
2016-10-23T05:53:07.506Z,4.69
2016-10-23T05:54:08.117Z,4.63
2016-10-23T05:55:07.850Z,4.54
2016-10-23T05:56:07.597Z,4.50
2016-10-23T05:57:07.346Z,4.61
2016-10-23T05:58:08.076Z,4.64
2016-10-23T05:59:07.998Z,4.74
2016-10-23T06:00:07.595Z,4.67
2016-10-23T06:01:09.019Z,4.67
2016-10-23T06:02:07.695Z,4.70
2016-10-23T06:03:07.326Z,4.77
2016-10-23T06:04:07.917Z,4.80
2016-10-23T06:05:07.657Z,4.80
2016-10-23T06:06:07.181Z,4.91
2016-10-23T06:07:07.746Z,4.84
2016-10-23T06:08:07.418Z,4.78
2016-10-23T06:09:08.124Z,4.84
2016-10-23T06:10:07.760Z,4.78
2016-10-23T06:11:07.343Z,4.91
2016-10-23T06:12:07.901Z,4.98
2016-10-23T06:13:08.083Z,4.91
2016-10-23T06:14:07.482Z,4.92
2016-10-23T06:15:08.274Z,4.99
2016-10-23T06:16:08.010Z,4.98
2016-10-23T06:17:08.626Z,4.95
2016-10-23T06:18:07.605Z,4.90
2016-10-23T06:19:07.273Z,4.92
2016-10-23T06:20:07.851Z,4.92
2016-10-23T06:21:07.372Z,4.97
2016-10-23T06:22:07.964Z,4.75
2016-10-23T06:23:07.658Z,4.94
2016-10-23T06:24:07.298Z,5.02
2016-10-23T06:25:07.905Z,4.98
2016-10-23T06:26:07.392Z,5.12
2016-10-23T06:27:07.960Z,5.14
2016-10-23T06:28:07.660Z,5.14
2016-10-23T06:29:07.149Z,5.12
2016-10-23T06:30:07.835Z,5.12
2016-10-23T06:31:07.745Z,5.05
2016-10-23T06:32:07.245Z,5.07
2016-10-23T06:33:07.749Z,5.05
2016-10-23T06:34:07.294Z,5.12
2016-10-23T06:35:08.217Z,5.22
2016-10-23T06:36:07.876Z,5.23
2016-10-23T06:37:07.519Z,5.16
2016-10-23T06:38:08.198Z,5.31
2016-10-23T06:39:07.939Z,5.27
2016-10-23T06:40:07.574Z,5.11
2016-10-23T06:41:08.085Z,5.06
2016-10-23T06:42:07.699Z,5.13
2016-10-23T06:43:07.209Z,5.16
2016-10-23T06:44:07.886Z,5.19
2016-10-23T06:45:07.505Z,5.24
2016-10-23T06:46:08.971Z,5.19
2016-10-23T06:47:07.592Z,5.24
2016-10-23T06:48:07.143Z,5.25
2016-10-23T06:49:07.835Z,5.25
2016-10-23T06:50:07.445Z,5.19
2016-10-23T06:51:08.083Z,5.30
2016-10-23T06:52:07.827Z,5.35
2016-10-23T06:53:07.526Z,5.02
2016-10-23T06:54:07.261Z,5.13
2016-10-23T06:55:08.733Z,5.15
2016-10-23T06:56:07.447Z,5.23
2016-10-23T06:57:08.027Z,5.28
2016-10-23T06:58:07.704Z,5.25
2016-10-23T06:59:07.277Z,5.12
2016-10-23T07:00:07.843Z,5.10
2016-10-23T07:01:08.535Z,5.18
2016-10-23T07:02:07.730Z,5.23
2016-10-23T07:03:07.393Z,5.32
2016-10-23T07:04:08.135Z,5.40
2016-10-23T07:05:07.746Z,5.55
2016-10-23T07:06:07.331Z,5.63
2016-10-23T07:07:08.935Z,5.56
2016-10-23T07:08:08.038Z,5.50
2016-10-23T07:09:07.644Z,5.30
2016-10-23T07:10:07.274Z,5.54
2016-10-23T07:11:07.912Z,5.63
2016-10-23T07:12:07.507Z,5.62
2016-10-23T07:13:08.166Z,5.62
2016-10-23T07:14:07.321Z,5.58
2016-10-23T07:15:07.929Z,5.70
2016-10-23T07:16:08.181Z,5.80
2016-10-23T07:17:08.451Z,5.85
2016-10-23T07:18:08.387Z,5.79
2016-10-23T07:19:09.430Z,5.86
2016-10-23T07:20:09.503Z,5.94
2016-10-23T07:21:07.432Z,6.01
2016-10-23T07:22:09.989Z,6.06
2016-10-23T07:23:07.773Z,6.07
2016-10-23T07:24:08.655Z,6.08
2016-10-23T07:25:07.083Z,6.16
2016-10-23T07:26:07.604Z,6.14
2016-10-23T07:27:07.656Z,6.13
2016-10-23T07:28:07.335Z,5.99
2016-10-23T07:29:07.994Z,5.94
2016-10-23T07:30:07.540Z,5.87
2016-10-23T07:31:08.083Z,5.94
2016-10-23T07:32:07.759Z,6.07
2016-10-23T07:33:07.407Z,6.16
2016-10-23T07:34:08.015Z,6.10
2016-10-23T07:35:07.536Z,6.17
2016-10-23T07:36:08.472Z,6.18
2016-10-23T07:37:07.226Z,6.19
2016-10-23T07:38:08.394Z,6.07
2016-10-23T07:39:08.003Z,6.16
2016-10-23T07:40:08.311Z,6.32
2016-10-23T07:41:07.979Z,6.28
2016-10-23T07:42:07.625Z,6.35
2016-10-23T07:43:07.501Z,6.42
2016-10-23T07:44:08.153Z,6.44
2016-10-23T07:45:08.027Z,6.50
2016-10-23T07:46:08.295Z,6.59
2016-10-23T07:47:09.981Z,6.61
2016-10-23T07:48:08.372Z,6.65
2016-10-23T07:49:08.069Z,6.59
2016-10-23T07:50:07.681Z,6.61
2016-10-23T07:51:07.196Z,6.61
2016-10-23T07:52:07.961Z,6.68
2016-10-23T07:53:07.576Z,6.72
2016-10-23T07:54:08.163Z,6.74
2016-10-23T07:55:07.791Z,6.76
2016-10-23T07:56:07.373Z,6.69
2016-10-23T07:57:07.928Z,6.72
2016-10-23T07:58:07.472Z,6.77
2016-10-23T07:59:08.032Z,6.77
2016-10-23T08:00:08.672Z,6.89
2016-10-23T08:01:07.313Z,6.86
2016-10-23T08:02:08.125Z,6.87
2016-10-23T08:03:07.714Z,6.96
2016-10-23T08:04:07.272Z,6.93
2016-10-23T08:05:07.795Z,6.97
2016-10-23T08:06:07.400Z,6.92
2016-10-23T08:07:07.515Z,6.99
2016-10-23T08:08:08.191Z,6.96
2016-10-23T08:09:07.746Z,6.98
2016-10-23T08:10:07.454Z,7.08
2016-10-23T08:11:08.124Z,7.19
2016-10-23T08:12:07.788Z,7.28
2016-10-23T08:13:07.761Z,7.31
2016-10-23T08:14:07.677Z,7.38
2016-10-23T08:15:07.269Z,7.45
2016-10-23T08:16:07.827Z,7.52
2016-10-23T08:17:07.484Z,7.54
2016-10-23T08:18:08.205Z,7.54
2016-10-23T08:19:07.903Z,7.56
2016-10-23T08:20:07.602Z,7.59
2016-10-23T08:21:07.258Z,7.57
2016-10-23T08:22:07.687Z,7.57
2016-10-23T08:23:08.686Z,7.58
2016-10-23T08:24:07.228Z,7.54
2016-10-23T08:25:07.856Z,7.58
2016-10-23T08:26:07.629Z,7.56
2016-10-23T08:27:07.453Z,7.67
2016-10-23T08:28:08.132Z,7.72
2016-10-23T08:29:07.706Z,7.76
2016-10-23T08:30:18.679Z,7.70
2016-10-23T08:31:07.370Z,7.76
2016-10-23T08:32:08.071Z,7.80
2016-10-23T08:33:07.683Z,7.83
2016-10-23T08:34:08.363Z,7.81
2016-10-23T08:35:07.530Z,7.82
2016-10-23T08:36:08.182Z,7.92
2016-10-23T08:37:08.531Z,7.89
2016-10-23T08:38:07.934Z,7.92
2016-10-23T08:39:07.628Z,7.89
2016-10-23T08:40:07.234Z,7.89
2016-10-23T08:41:07.882Z,7.84
2016-10-23T08:42:07.466Z,7.90
2016-10-23T08:43:08.217Z,7.89
2016-10-23T08:44:08.111Z,7.96
2016-10-23T08:45:07.727Z,8.08
2016-10-23T08:46:07.624Z,8.13
2016-10-23T08:47:07.319Z,8.12
2016-10-23T08:48:08.405Z,8.15
2016-10-23T08:49:07.940Z,8.14
2016-10-23T08:50:07.473Z,8.17
2016-10-23T08:51:08.006Z,8.09
2016-10-23T08:52:07.518Z,8.00
2016-10-23T08:53:08.025Z,7.97
2016-10-23T08:54:07.694Z,7.93
2016-10-23T08:55:08.356Z,8.01
2016-10-23T08:56:08.020Z,8.06
2016-10-23T08:57:07.691Z,8.07
2016-10-23T08:58:07.919Z,8.10
2016-10-23T08:59:07.714Z,8.12
2016-10-23T09:00:07.615Z,8.17
2016-10-23T09:01:08.107Z,8.17
2016-10-23T09:02:07.873Z,8.17
2016-10-23T09:03:09.066Z,8.19
2016-10-23T09:04:07.668Z,8.16
2016-10-23T09:05:07.334Z,8.22
2016-10-23T09:06:07.975Z,8.22
2016-10-23T09:07:07.713Z,8.29
2016-10-23T09:08:07.366Z,8.31
2016-10-23T09:09:08.057Z,8.36
2016-10-23T09:10:07.759Z,8.37
2016-10-23T09:11:07.665Z,8.36
2016-10-23T09:12:08.070Z,8.38
2016-10-23T09:13:07.620Z,8.36
2016-10-23T09:14:08.158Z,8.36
2016-10-23T09:15:08.572Z,8.39
2016-10-23T09:16:07.269Z,8.41
2016-10-23T09:17:07.513Z,8.46
2016-10-23T09:18:07.805Z,8.49
2016-10-23T09:19:07.449Z,8.53
2016-10-23T09:20:07.723Z,8.54
2016-10-23T09:21:07.372Z,8.58
2016-10-23T09:22:08.514Z,8.58
2016-10-23T09:23:07.209Z,8.64
2016-10-23T09:24:07.788Z,8.67
2016-10-23T09:25:07.332Z,8.67
2016-10-23T09:26:07.962Z,8.76
2016-10-23T09:27:07.606Z,8.79
2016-10-23T09:28:07.227Z,8.81
2016-10-23T09:29:07.852Z,8.72
2016-10-23T09:30:07.574Z,8.77
2016-10-23T09:31:08.224Z,8.83
2016-10-23T09:32:07.448Z,8.85
2016-10-23T09:33:08.239Z,8.89
2016-10-23T09:34:08.360Z,8.91
2016-10-23T09:35:08.000Z,8.99
2016-10-23T09:36:07.704Z,9.02
2016-10-23T09:37:07.383Z,9.15
2016-10-23T09:38:08.492Z,9.17
2016-10-23T09:39:08.173Z,9.22
2016-10-23T09:40:07.836Z,9.28
2016-10-23T09:41:07.466Z,9.34
2016-10-23T09:42:08.155Z,9.36
2016-10-23T09:43:07.787Z,9.33
2016-10-23T09:44:07.411Z,9.38
2016-10-23T09:45:08.099Z,9.44
2016-10-23T09:46:07.818Z,9.43
2016-10-23T09:47:07.568Z,9.43
2016-10-23T09:48:07.127Z,9.41
2016-10-23T09:49:07.752Z,9.40
2016-10-23T09:50:07.297Z,9.42
2016-10-23T09:51:07.918Z,9.41
2016-10-23T09:52:07.389Z,9.39
2016-10-23T09:53:08.775Z,9.43
2016-10-23T09:54:08.219Z,9.43
2016-10-23T09:55:07.882Z,9.43
2016-10-23T09:56:08.762Z,9.48
2016-10-23T09:57:09.014Z,9.46
2016-10-23T09:58:08.494Z,9.46
2016-10-23T09:59:09.063Z,9.47
2016-10-23T10:00:08.055Z,9.50
2016-10-23T10:01:07.647Z,9.55
2016-10-23T10:02:07.333Z,9.56
2016-10-23T10:03:08.033Z,9.59
2016-10-23T10:04:08.016Z,9.61
2016-10-23T10:05:08.577Z,9.64
2016-10-23T10:06:07.268Z,9.76
2016-10-23T10:07:08.014Z,9.77
2016-10-23T10:08:07.698Z,9.84
2016-10-23T10:09:08.222Z,9.89
2016-10-23T10:10:08.406Z,9.97
2016-10-23T10:11:08.632Z,10.01
2016-10-23T10:12:07.121Z,10.11
2016-10-23T10:13:07.703Z,10.16
2016-10-23T10:14:08.139Z,10.19
2016-10-23T10:15:07.698Z,10.18
2016-10-23T10:16:07.264Z,10.19
2016-10-23T10:17:07.959Z,10.18
2016-10-23T10:18:07.910Z,10.15
2016-10-23T10:19:07.728Z,10.16
2016-10-23T10:20:15.597Z,10.13
2016-10-23T10:21:07.996Z,10.18
2016-10-23T10:22:08.219Z,10.14
2016-10-23T10:23:07.807Z,10.17
2016-10-23T10:24:07.295Z,10.23
2016-10-23T10:25:09.297Z,10.31
2016-10-23T10:26:07.939Z,10.39
2016-10-23T10:27:07.873Z,10.41
2016-10-23T10:28:07.661Z,10.42
2016-10-23T10:29:07.243Z,10.49
2016-10-23T10:30:07.983Z,10.54
2016-10-23T10:31:08.260Z,10.56
2016-10-23T10:32:08.180Z,10.57
2016-10-23T10:33:07.872Z,10.60
2016-10-23T10:34:07.549Z,10.50
2016-10-23T10:35:07.368Z,10.38
2016-10-23T10:36:07.951Z,10.40
2016-10-23T10:37:07.875Z,10.42
2016-10-23T10:38:18.116Z,10.51
2016-10-23T10:39:08.206Z,10.50
2016-10-23T10:40:16.238Z,10.59
2016-10-23T10:41:07.760Z,10.70
2016-10-23T10:42:07.233Z,10.68
2016-10-23T10:43:07.771Z,10.74
2016-10-23T10:44:07.383Z,10.74
2016-10-23T10:45:07.409Z,10.80
2016-10-23T10:46:08.066Z,10.82
2016-10-23T10:47:08.534Z,10.84
2016-10-23T10:48:08.634Z,10.89
2016-10-23T10:49:08.082Z,10.95
2016-10-23T10:50:09.294Z,11.01
2016-10-23T10:51:09.356Z,11.05
2016-10-23T10:52:08.001Z,11.09
2016-10-23T10:53:07.601Z,11.09
2016-10-23T10:54:07.659Z,11.08
2016-10-23T10:55:07.300Z,11.08
2016-10-23T10:56:07.386Z,11.11
2016-10-23T10:57:07.903Z,11.14
2016-10-23T10:58:07.379Z,11.12
2016-10-23T10:59:07.928Z,11.13
2016-10-23T11:00:08.466Z,11.23
2016-10-23T11:01:08.258Z,11.33
2016-10-23T11:02:07.569Z,11.39
2016-10-23T11:03:07.247Z,11.39
2016-10-23T11:04:07.961Z,11.31
2016-10-23T11:05:07.599Z,11.36
2016-10-23T11:06:07.152Z,11.43
2016-10-23T11:07:07.755Z,11.41
2016-10-23T11:08:07.398Z,11.38
2016-10-23T11:09:08.082Z,11.36
2016-10-23T11:10:07.665Z,11.37
2016-10-23T11:11:07.320Z,11.37
2016-10-23T11:12:08.019Z,11.37
2016-10-23T11:13:07.602Z,11.41
2016-10-23T11:14:07.162Z,11.47
2016-10-23T11:15:07.238Z,11.47
2016-10-23T11:16:07.829Z,11.55
2016-10-23T11:17:07.539Z,11.63
2016-10-23T11:18:08.180Z,11.68
2016-10-23T11:19:07.875Z,11.68
2016-10-23T11:20:08.032Z,11.70
2016-10-23T11:21:07.624Z,11.75
2016-10-23T11:22:07.128Z,11.72
2016-10-23T11:23:07.650Z,11.76
2016-10-23T11:24:07.123Z,11.79
2016-10-23T11:25:07.594Z,11.81
2016-10-23T11:26:07.175Z,11.75
2016-10-23T11:27:07.895Z,11.78
2016-10-23T11:28:07.654Z,11.83
2016-10-23T11:29:07.285Z,11.84
2016-10-23T11:30:07.979Z,11.92
2016-10-23T11:31:07.836Z,11.95
2016-10-23T11:32:07.548Z,12.01
2016-10-23T11:33:07.105Z,12.01
2016-10-23T11:34:07.737Z,12.07
2016-10-23T11:35:07.375Z,12.09
2016-10-23T11:36:08.035Z,12.09
2016-10-23T11:37:07.739Z,12.14
2016-10-23T11:38:08.926Z,12.17
2016-10-23T11:39:08.098Z,12.18
2016-10-23T11:40:09.328Z,12.14
2016-10-23T11:41:08.856Z,12.09
2016-10-23T11:42:07.849Z,12.10
2016-10-23T11:43:07.849Z,12.13
2016-10-23T11:44:07.554Z,12.18
2016-10-23T11:45:07.250Z,12.18
2016-10-23T11:46:07.244Z,12.26
2016-10-23T11:47:07.735Z,12.31
2016-10-23T11:48:07.400Z,12.30
2016-10-23T11:49:07.992Z,12.29
2016-10-23T11:50:18.678Z,12.33
2016-10-23T11:51:08.135Z,12.36
2016-10-23T11:52:07.884Z,12.41
2016-10-23T11:53:07.121Z,12.38
2016-10-23T11:54:07.625Z,12.44
2016-10-23T11:55:07.173Z,12.49
2016-10-23T11:56:07.770Z,12.52
2016-10-23T11:57:07.353Z,12.55
2016-10-23T11:58:07.990Z,12.62
2016-10-23T11:59:07.627Z,12.59
2016-10-23T12:00:07.499Z,12.63
2016-10-23T12:01:08.127Z,12.73
2016-10-23T12:02:07.253Z,12.83
2016-10-23T12:03:07.892Z,12.81
2016-10-23T12:04:07.499Z,12.79
2016-10-23T12:05:08.004Z,12.80
2016-10-23T12:06:07.603Z,12.79
2016-10-23T12:07:07.261Z,12.83
2016-10-23T12:08:07.905Z,12.95
2016-10-23T12:09:07.392Z,13.07
2016-10-23T12:10:08.109Z,13.18
2016-10-23T12:11:08.645Z,13.18
2016-10-23T12:12:07.164Z,13.27
2016-10-23T12:13:07.813Z,13.34
2016-10-23T12:14:07.315Z,13.35
2016-10-23T12:15:07.878Z,13.36
2016-10-23T12:16:07.515Z,13.36
2016-10-23T12:17:08.187Z,13.27
2016-10-23T12:18:08.046Z,13.36
2016-10-23T12:19:08.598Z,13.11
2016-10-23T12:20:07.230Z,12.99
2016-10-23T12:21:07.838Z,12.88
2016-10-23T12:22:07.404Z,12.87
2016-10-23T12:23:07.923Z,12.86
2016-10-23T12:24:08.362Z,12.84
2016-10-23T12:25:08.026Z,12.79
2016-10-23T12:26:07.739Z,12.76
2016-10-23T12:27:07.321Z,12.71
2016-10-23T12:28:08.117Z,12.70
2016-10-23T12:29:07.730Z,12.67
2016-10-23T12:30:07.363Z,12.62
2016-10-23T12:31:07.955Z,12.64
2016-10-23T12:32:07.536Z,12.71
2016-10-23T12:33:08.055Z,12.73
2016-10-23T12:34:07.545Z,12.92
2016-10-23T12:35:08.992Z,13.11
2016-10-23T12:36:08.684Z,13.10
2016-10-23T12:37:08.169Z,13.18
2016-10-23T12:38:07.927Z,13.26
2016-10-23T12:39:08.055Z,13.35
2016-10-23T12:40:08.584Z,13.42
2016-10-23T12:41:07.205Z,13.40
2016-10-23T12:42:08.284Z,13.49
2016-10-23T12:43:08.093Z,13.55
2016-10-23T12:44:07.724Z,13.69
2016-10-23T12:45:08.285Z,13.70
2016-10-23T12:46:08.293Z,13.66
2016-10-23T12:47:07.947Z,13.55
2016-10-23T12:48:07.537Z,13.43
2016-10-23T12:49:08.296Z,13.35
2016-10-23T12:50:08.657Z,13.27
2016-10-23T12:51:07.277Z,13.21
2016-10-23T12:52:08.047Z,13.22
2016-10-23T12:53:07.308Z,13.11
2016-10-23T12:54:07.941Z,13.07
2016-10-23T12:55:07.543Z,13.02
2016-10-23T12:56:08.136Z,12.97
2016-10-23T12:57:07.828Z,13.00
2016-10-23T12:58:08.020Z,13.07
2016-10-23T12:59:07.747Z,13.14
2016-10-23T13:00:08.060Z,13.15
2016-10-23T13:01:07.769Z,13.18
2016-10-23T13:02:07.734Z,13.18
2016-10-23T13:03:08.182Z,13.21
2016-10-23T13:04:07.801Z,13.22
2016-10-23T13:05:08.177Z,13.33
2016-10-23T13:06:07.193Z,13.37
2016-10-23T13:07:20.238Z,13.36
2016-10-23T13:08:09.001Z,13.39
2016-10-23T13:09:08.032Z,13.41
2016-10-23T13:10:07.845Z,13.44
2016-10-23T13:11:08.125Z,13.44
2016-10-23T13:12:07.454Z,13.48